Flugplatz Gunzenhausen-Reutberg

Für EDMH sind keine METAR/TAF Berichte vorhanden.
Es werden die Flugwettermeldungen vom Flugplatz Ansbach Army Heliport in 24 km Entfernung angezeigt.

Bericht für ETEB

vom 02.06. um 23:56 UTC

kein Wind

Sichtweite 10 km oder mehr

keine Wolken

Temperatur 15.8°C

Taupunkt 5.7°C

Luftfeuchtigkeit 51%

Luftdruck 1012 hPa

ETEB 022356Z AUTO 00000KT 9999 CLR 16/06 A2988 RMK AO2 SLP115 T01580057 10233 20149 57014 $

Prognose für ETEB

vom 02.06. um 17:00 UTC

Am 02.06. zwischen 17:00 UTC und 22:00 UTC

variable Windrichtung mit 6 kt

Sichtweite 10 km oder mehr

gering bewölkt in 5000 ft


Am 02.06. zwischen 22:00 und 23:00 UTC übergehend zu

variable Windrichtung mit 6 kt

Sichtweite 10 km oder mehr

aufgelockert bewölkt in 4500 ft


Zwischen 15:00 und 16:00 UTC übergehend zu

Wind 9 kt aus 280°

Sichtweite 10 km oder mehr

Code: VCSH

aufgebrochene Bewölkung in 4000 ft

TAF ETEB 021700Z 0217/0323 VRB06KT 9999 FEW050 QNH2991INS BECMG 0222/0223 VRB06KT 9999 SCT045 QNH2966INS BECMG 0315/0316 28009KT 9999 VCSH BKN040 QNH2960INS TX24/0315Z TN12/0303Z LAST NO AMDS AFT 0222 NEXT 0309
Impressum